sensor_id;sensor_type;location;lat;lon;timestamp;pressure;altitude;pressure_sealevel;temperature;humidity
81499;BME280;70904;52.360;5.198;2023-07-08T00:01:41;101925.06;;;18.35;62.00
81499;BME280;70904;52.360;5.198;2023-07-08T00:04:06;101923.72;;;18.32;62.16
81499;BME280;70904;52.360;5.198;2023-07-08T00:06:32;101914.13;;;18.30;62.38
81499;BME280;70904;52.360;5.198;2023-07-08T00:08:58;101920.47;;;18.25;63.03
81499;BME280;70904;52.360;5.198;2023-07-08T00:11:24;101918.03;;;18.18;62.67
81499;BME280;70904;52.360;5.198;2023-07-08T00:13:50;101911.75;;;18.13;63.11
81499;BME280;70904;52.360;5.198;2023-07-08T00:16:17;101903.78;;;18.16;63.29
81499;BME280;70904;52.360;5.198;2023-07-08T00:18:43;101906.53;;;18.11;63.25
81499;BME280;70904;52.360;5.198;2023-07-08T00:21:11;101900.28;;;18.06;63.63
81499;BME280;70904;52.360;5.198;2023-07-08T00:23:40;101908.78;;;18.04;63.84
81499;BME280;70904;52.360;5.198;2023-07-08T00:26:29;101900.00;;;18.02;63.75
81499;BME280;70904;52.360;5.198;2023-07-08T00:28:56;101899.47;;;18.05;63.95
81499;BME280;70904;52.360;5.198;2023-07-08T00:31:25;101900.56;;;18.04;64.10
81499;BME280;70904;52.360;5.198;2023-07-08T00:33:54;101903.06;;;17.95;64.00
81499;BME280;70904;52.360;5.198;2023-07-08T00:36:21;101899.78;;;17.93;64.29
81499;BME280;70904;52.360;5.198;2023-07-08T00:38:47;101901.72;;;17.88;65.29
81499;BME280;70904;52.360;5.198;2023-07-08T00:41:20;101902.28;;;17.85;65.10
81499;BME280;70904;52.360;5.198;2023-07-08T00:43:54;101890.22;;;17.81;65.22
81499;BME280;70904;52.360;5.198;2023-07-08T00:48:56;101878.72;;;17.73;65.10
81499;BME280;70904;52.360;5.198;2023-07-08T00:51:23;101881.19;;;17.75;65.06
81499;BME280;70904;52.360;5.198;2023-07-08T00:53:48;101879.84;;;17.72;65.57
81499;BME280;70904;52.360;5.198;2023-07-08T00:56:37;101877.66;;;17.69;65.71
81499;BME280;70904;52.360;5.198;2023-07-08T00:59:11;101877.38;;;17.66;65.55
81499;BME280;70904;52.360;5.198;2023-07-08T01:01:41;101879.88;;;17.67;65.43
81499;BME280;70904;52.360;5.198;2023-07-08T01:04:25;101881.75;;;17.67;66.24
81499;BME280;70904;52.360;5.198;2023-07-08T01:06:56;101878.50;;;17.65;65.60
81499;BME280;70904;52.360;5.198;2023-07-08T01:09:33;101885.31;;;17.62;66.06
81499;BME280;70904;52.360;5.198;2023-07-08T01:12:03;101871.66;;;17.57;65.89
81499;BME280;70904;52.360;5.198;2023-07-08T01:14:31;101874.16;;;17.48;66.71
81499;BME280;70904;52.360;5.198;2023-07-08T01:16:57;101867.88;;;17.43;67.10
81499;BME280;70904;52.360;5.198;2023-07-08T01:19:23;101870.91;;;17.41;66.94
81499;BME280;70904;52.360;5.198;2023-07-08T01:22:05;101860.78;;;17.37;67.07
81499;BME280;70904;52.360;5.198;2023-07-08T01:24:35;101862.97;;;17.40;67.07
81499;BME280;70904;52.360;5.198;2023-07-08T01:27:02;101857.72;;;17.43;67.13
81499;BME280;70904;52.360;5.198;2023-07-08T01:29:29;101852.00;;;17.40;67.00
81499;BME280;70904;52.360;5.198;2023-07-08T01:31:56;101851.47;;;17.38;66.75
81499;BME280;70904;52.360;5.198;2023-07-08T01:34:22;101856.38;;;17.35;67.52
81499;BME280;70904;52.360;5.198;2023-07-08T01:36:51;101848.75;;;17.27;67.49
81499;BME280;70904;52.360;5.198;2023-07-08T01:39:20;101829.09;;;17.15;67.14
81499;BME280;70904;52.360;5.198;2023-07-08T01:41:46;101850.91;;;17.35;66.99
81499;BME280;70904;52.360;5.198;2023-07-08T01:44:22;101843.50;;;17.36;66.52
81499;BME280;70904;52.360;5.198;2023-07-08T01:46:48;101843.78;;;17.40;66.28
81499;BME280;70904;52.360;5.198;2023-07-08T01:49:14;101841.59;;;17.31;66.37
81499;BME280;70904;52.360;5.198;2023-07-08T01:51:40;101836.69;;;17.28;67.35
81499;BME280;70904;52.360;5.198;2023-07-08T01:54:05;101836.16;;;17.21;67.09
81499;BME280;70904;52.360;5.198;2023-07-08T01:56:30;101829.91;;;17.16;67.31
81499;BME280;70904;52.360;5.198;2023-07-08T01:58:56;101830.97;;;17.14;67.04
81499;BME280;70904;52.360;5.198;2023-07-08T02:01:21;101840.56;;;17.12;67.18
81499;BME280;70904;52.360;5.198;2023-07-08T02:03:46;101831.00;;;17.09;67.95
81499;BME280;70904;52.360;5.198;2023-07-08T02:06:12;101819.50;;;17.07;67.25
81499;BME280;70904;52.360;5.198;2023-07-08T02:08:37;101822.22;;;17.12;66.90
81499;BME280;70904;52.360;5.198;2023-07-08T02:11:03;101823.59;;;17.15;66.78
81499;BME280;70904;52.360;5.198;2023-07-08T02:13:28;101818.94;;;17.16;67.04
81499;BME280;70904;52.360;5.198;2023-07-08T02:15:53;101815.94;;;17.07;67.24
81499;BME280;70904;52.360;5.198;2023-07-08T02:18:19;101815.38;;;17.10;67.03
81499;BME280;70904;52.360;5.198;2023-07-08T02:20:45;101816.75;;;17.07;67.71
81499;BME280;70904;52.360;5.198;2023-07-08T02:23:11;101815.66;;;17.19;66.52
81499;BME280;70904;52.360;5.198;2023-07-08T02:25:36;101806.91;;;17.17;66.55
81499;BME280;70904;52.360;5.198;2023-07-08T02:28:02;101805.28;;;17.05;67.20
81499;BME280;70904;52.360;5.198;2023-07-08T02:30:27;101796.00;;;17.06;67.37
81499;BME280;70904;52.360;5.198;2023-07-08T02:32:53;101804.75;;;16.98;67.35
81499;BME280;70904;52.360;5.198;2023-07-08T02:35:30;101805.56;;;16.93;67.98
81499;BME280;70904;52.360;5.198;2023-07-08T02:37:56;101805.31;;;16.95;67.41
81499;BME280;70904;52.360;5.198;2023-07-08T02:40:23;101810.22;;;16.93;67.92
81499;BME280;70904;52.360;5.198;2023-07-08T02:42:48;101801.19;;;16.92;67.55
81499;BME280;70904;52.360;5.198;2023-07-08T02:45:15;101788.63;;;16.91;67.91
81499;BME280;70904;52.360;5.198;2023-07-08T02:47:40;101796.81;;;16.86;68.04
81499;BME280;70904;52.360;5.198;2023-07-08T02:50:07;101795.47;;;16.84;68.67
81499;BME280;70904;52.360;5.198;2023-07-08T02:52:33;101789.72;;;16.80;69.13
81499;BME280;70904;52.360;5.198;2023-07-08T02:54:59;101790.81;;;16.79;68.13
81499;BME280;70904;52.360;5.198;2023-07-08T02:57:24;101781.50;;;16.75;68.63
81499;BME280;70904;52.360;5.198;2023-07-08T02:59:49;101788.88;;;16.75;68.35
81499;BME280;70904;52.360;5.198;2023-07-08T03:02:15;101785.34;;;16.69;68.88
81499;BME280;70904;52.360;5.198;2023-07-08T03:04:40;101782.59;;;16.69;68.37
81499;BME280;70904;52.360;5.198;2023-07-08T03:07:07;101772.75;;;16.63;68.33
81499;BME280;70904;52.360;5.198;2023-07-08T03:09:40;101773.84;;;16.72;68.27
81499;BME280;70904;52.360;5.198;2023-07-08T03:12:07;101785.06;;;16.70;68.07
81499;BME280;70904;52.360;5.198;2023-07-08T03:14:33;101781.22;;;16.77;67.96
81499;BME280;70904;52.360;5.198;2023-07-08T03:16:58;101783.69;;;16.63;68.61
81499;BME280;70904;52.360;5.198;2023-07-08T03:19:23;101783.16;;;16.66;68.17
81499;BME280;70904;52.360;5.198;2023-07-08T03:21:49;101785.59;;;16.62;68.50
81499;BME280;70904;52.360;5.198;2023-07-08T03:24:14;101781.78;;;16.53;68.69
81499;BME280;70904;52.360;5.198;2023-07-08T03:26:44;101788.59;;;16.56;68.72
81499;BME280;70904;52.360;5.198;2023-07-08T03:29:15;101789.72;;;16.55;68.62
81499;BME280;70904;52.360;5.198;2023-07-08T03:31:41;101794.91;;;16.61;68.57
81499;BME280;70904;52.360;5.198;2023-07-08T03:34:09;101787.53;;;16.62;68.36
81499;BME280;70904;52.360;5.198;2023-07-08T03:36:36;101793.00;;;16.62;68.35
81499;BME280;70904;52.360;5.198;2023-07-08T03:39:05;101786.16;;;16.64;68.21
81499;BME280;70904;52.360;5.198;2023-07-08T03:41:30;101783.97;;;16.61;68.30
81499;BME280;70904;52.360;5.198;2023-07-08T03:43:56;101784.25;;;16.55;69.12
81499;BME280;70904;52.360;5.198;2023-07-08T03:46:21;101797.91;;;16.55;68.58
81499;BME280;70904;52.360;5.198;2023-07-08T03:48:48;101796.00;;;16.70;67.81
81499;BME280;70904;52.360;5.198;2023-07-08T03:51:34;101787.50;;;16.67;68.04
81499;BME280;70904;52.360;5.198;2023-07-08T03:54:00;101795.72;;;16.67;67.54
81499;BME280;70904;52.360;5.198;2023-07-08T03:56:25;101791.59;;;16.75;67.14
81499;BME280;70904;52.360;5.198;2023-07-08T03:58:51;101791.91;;;16.73;67.36
81499;BME280;70904;52.360;5.198;2023-07-08T04:01:18;101796.56;;;16.72;68.06
81499;BME280;70904;52.360;5.198;2023-07-08T04:03:46;101800.66;;;16.75;67.10
81499;BME280;70904;52.360;5.198;2023-07-08T04:06:12;101797.63;;;16.77;67.13
81499;BME280;70904;52.360;5.198;2023-07-08T04:08:37;101791.91;;;16.83;66.46
81499;BME280;70904;52.360;5.198;2023-07-08T04:11:03;101793.28;;;16.86;66.66
81499;BME280;70904;52.360;5.198;2023-07-08T04:13:28;101790.53;;;16.86;66.22
81499;BME280;70904;52.360;5.198;2023-07-08T04:15:59;101786.44;;;16.83;66.50
81499;BME280;70904;52.360;5.198;2023-07-08T04:18:26;101789.72;;;16.85;66.40
81499;BME280;70904;52.360;5.198;2023-07-08T04:20:52;101791.34;;;16.86;66.83
81499;BME280;70904;52.360;5.198;2023-07-08T04:23:19;101792.72;;;16.84;66.23
81499;BME280;70904;52.360;5.198;2023-07-08T04:25:45;101796.00;;;16.86;66.61
81499;BME280;70904;52.360;5.198;2023-07-08T04:28:11;101799.28;;;16.88;66.57
81499;BME280;70904;52.360;5.198;2023-07-08T04:30:37;101795.44;;;16.89;66.34
81499;BME280;70904;52.360;5.198;2023-07-08T04:33:07;101799.28;;;16.88;66.38
81499;BME280;70904;52.360;5.198;2023-07-08T04:35:33;101795.19;;;16.90;66.69
81499;BME280;70904;52.360;5.198;2023-07-08T04:38:00;101793.56;;;16.89;66.71
81499;BME280;70904;52.360;5.198;2023-07-08T04:40:25;101797.09;;;16.95;65.93
81499;BME280;70904;52.360;5.198;2023-07-08T04:42:51;101790.53;;;16.96;65.94
81499;BME280;70904;52.360;5.198;2023-07-08T04:45:17;101784.22;;;17.01;66.02
81499;BME280;70904;52.360;5.198;2023-07-08T04:47:43;101797.06;;;17.00;65.97
81499;BME280;70904;52.360;5.198;2023-07-08T04:50:12;101784.75;;;17.03;65.97
81499;BME280;70904;52.360;5.198;2023-07-08T04:52:38;101797.06;;;17.10;65.09
81499;BME280;70904;52.360;5.198;2023-07-08T04:55:03;101791.84;;;17.19;64.87
81499;BME280;70904;52.360;5.198;2023-07-08T04:57:29;101800.91;;;17.20;65.49
81499;BME280;70904;52.360;5.198;2023-07-08T04:59:54;101795.09;;;17.26;64.89
81499;BME280;70904;52.360;5.198;2023-07-08T05:02:19;101793.22;;;17.27;66.08
81499;BME280;70904;52.360;5.198;2023-07-08T05:04:45;101790.72;;;17.30;65.53
81499;BME280;70904;52.360;5.198;2023-07-08T05:07:10;101789.34;;;17.33;65.83
81499;BME280;70904;52.360;5.198;2023-07-08T05:09:35;101794.47;;;17.50;64.52
81499;BME280;70904;52.360;5.198;2023-07-08T05:12:01;101792.97;;;17.78;63.51
81499;BME280;70904;52.360;5.198;2023-07-08T05:14:26;101792.63;;;18.00;63.28
81499;BME280;70904;52.360;5.198;2023-07-08T05:16:51;101788.09;;;18.25;61.81
81499;BME280;70904;52.360;5.198;2023-07-08T05:19:17;101795.69;;;18.33;61.82
81499;BME280;70904;52.360;5.198;2023-07-08T05:21:44;101792.34;;;18.41;62.15
81499;BME280;70904;52.360;5.198;2023-07-08T05:24:10;101791.22;;;18.81;60.43
81499;BME280;70904;52.360;5.198;2023-07-08T05:26:35;101790.44;;;19.05;59.00
81499;BME280;70904;52.360;5.198;2023-07-08T05:29:01;101796.63;;;19.16;59.10
81499;BME280;70904;52.360;5.198;2023-07-08T05:31:27;101793.72;;;19.31;58.68
81499;BME280;70904;52.360;5.198;2023-07-08T05:33:53;101793.94;;;19.59;57.54
81499;BME280;70904;52.360;5.198;2023-07-08T05:36:18;101789.16;;;19.88;57.08
81499;BME280;70904;52.360;5.198;2023-07-08T05:38:44;101792.59;;;19.99;56.53
81499;BME280;70904;52.360;5.198;2023-07-08T05:41:09;101791.16;;;20.21;56.94
81499;BME280;70904;52.360;5.198;2023-07-08T05:43:35;101795.03;;;20.39;55.93
81499;BME280;70904;52.360;5.198;2023-07-08T05:46:01;101785.81;;;20.81;54.41
81499;BME280;70904;52.360;5.198;2023-07-08T05:48:27;101792.22;;;20.90;54.10
81499;BME280;70904;52.360;5.198;2023-07-08T05:50:53;101789.09;;;20.97;55.30
81499;BME280;70904;52.360;5.198;2023-07-08T05:53:19;101785.84;;;21.36;54.51
81499;BME280;70904;52.360;5.198;2023-07-08T05:55:45;101782.50;;;21.53;52.32
81499;BME280;70904;52.360;5.198;2023-07-08T05:58:11;101786.16;;;21.63;52.71
81499;BME280;70904;52.360;5.198;2023-07-08T06:00:40;101787.88;;;21.72;51.47
81499;BME280;70904;52.360;5.198;2023-07-08T06:03:05;101789.69;;;21.91;51.41
81499;BME280;70904;52.360;5.198;2023-07-08T06:05:31;101790.50;;;21.91;50.49
81499;BME280;70904;52.360;5.198;2023-07-08T06:07:58;101790.34;;;22.10;50.34
81499;BME280;70904;52.360;5.198;2023-07-08T06:10:23;101783.91;;;22.60;49.56
81499;BME280;70904;52.360;5.198;2023-07-08T06:12:50;101794.47;;;22.35;50.17
81499;BME280;70904;52.360;5.198;2023-07-08T06:15:15;101787.91;;;22.09;49.69
81499;BME280;70904;52.360;5.198;2023-07-08T06:17:40;101789.31;;;22.43;49.50
81499;BME280;70904;52.360;5.198;2023-07-08T06:20:06;101786.44;;;22.70;48.88
81499;BME280;70904;52.360;5.198;2023-07-08T06:22:32;101788.31;;;22.61;48.94
81499;BME280;70904;52.360;5.198;2023-07-08T06:24:57;101792.00;;;23.10;46.84
81499;BME280;70904;52.360;5.198;2023-07-08T06:27:22;101790.88;;;23.11;47.68
81499;BME280;70904;52.360;5.198;2023-07-08T06:29:48;101796.22;;;23.56;46.08
81499;BME280;70904;52.360;5.198;2023-07-08T06:32:14;101798.75;;;23.93;46.99
81499;BME280;70904;52.360;5.198;2023-07-08T06:34:39;101796.66;;;24.24;44.87
81499;BME280;70904;52.360;5.198;2023-07-08T06:37:05;101794.69;;;24.60;44.18
81499;BME280;70904;52.360;5.198;2023-07-08T06:39:30;101787.88;;;24.48;43.64
81499;BME280;70904;52.360;5.198;2023-07-08T06:41:55;101801.53;;;24.36;43.94
81499;BME280;70904;52.360;5.198;2023-07-08T06:44:21;101798.28;;;23.99;45.42
81499;BME280;70904;52.360;5.198;2023-07-08T06:46:46;101800.41;;;24.55;44.11
81499;BME280;70904;52.360;5.198;2023-07-08T06:49:11;101804.91;;;24.68;43.37
81499;BME280;70904;52.360;5.198;2023-07-08T06:51:37;101795.84;;;25.06;42.82
81499;BME280;70904;52.360;5.198;2023-07-08T06:54:03;101797.53;;;24.89;42.67
81499;BME280;70904;52.360;5.198;2023-07-08T06:56:30;101800.38;;;25.28;43.70
81499;BME280;70904;52.360;5.198;2023-07-08T06:58:56;101795.41;;;24.95;42.78
81499;BME280;70904;52.360;5.198;2023-07-08T07:01:21;101804.34;;;25.39;41.55
81499;BME280;70904;52.360;5.198;2023-07-08T07:03:47;101788.50;;;25.10;42.67
81499;BME280;70904;52.360;5.198;2023-07-08T07:06:12;101787.03;;;25.12;43.76
81499;BME280;70904;52.360;5.198;2023-07-08T07:08:38;101790.88;;;25.88;41.49
81499;BME280;70904;52.360;5.198;2023-07-08T07:11:03;101796.09;;;26.11;40.46
81499;BME280;70904;52.360;5.198;2023-07-08T07:13:28;101790.28;;;25.74;40.76
81499;BME280;70904;52.360;5.198;2023-07-08T07:15:54;101794.66;;;26.05;40.22
81499;BME280;70904;52.360;5.198;2023-07-08T07:18:19;101796.69;;;26.16;40.35
81499;BME280;70904;52.360;5.198;2023-07-08T07:20:49;101799.06;;;26.06;40.41
81499;BME280;70904;52.360;5.198;2023-07-08T07:23:15;101803.66;;;26.23;40.09
81499;BME280;70904;52.360;5.198;2023-07-08T07:25:41;101803.09;;;26.84;40.74
81499;BME280;70904;52.360;5.198;2023-07-08T07:28:06;101798.50;;;27.49;38.78
81499;BME280;70904;52.360;5.198;2023-07-08T07:30:32;101782.41;;;27.42;37.70
81499;BME280;70904;52.360;5.198;2023-07-08T07:33:00;101797.88;;;26.82;40.43
81499;BME280;70904;52.360;5.198;2023-07-08T07:35:26;101793.50;;;26.93;39.98
81499;BME280;70904;52.360;5.198;2023-07-08T07:37:54;101795.38;;;27.63;39.71
81499;BME280;70904;52.360;5.198;2023-07-08T07:40:20;101785.03;;;27.63;38.44
81499;BME280;70904;52.360;5.198;2023-07-08T07:42:46;101791.88;;;27.91;37.04
81499;BME280;70904;52.360;5.198;2023-07-08T07:45:12;101802.00;;;28.11;36.64
81499;BME280;70904;52.360;5.198;2023-07-08T07:47:39;101791.81;;;28.03;37.69
81499;BME280;70904;52.360;5.198;2023-07-08T07:50:05;101791.78;;;28.15;37.15
81499;BME280;70904;52.360;5.198;2023-07-08T07:52:32;101788.50;;;27.97;37.23
81499;BME280;70904;52.360;5.198;2023-07-08T07:54:57;101787.06;;;28.60;35.94
81499;BME280;70904;52.360;5.198;2023-07-08T07:57:23;101782.69;;;28.75;36.11
81499;BME280;70904;52.360;5.198;2023-07-08T07:59:49;101788.22;;;29.19;34.78
81499;BME280;70904;52.360;5.198;2023-07-08T08:02:15;101797.38;;;29.19;34.70
81499;BME280;70904;52.360;5.198;2023-07-08T08:04:41;101794.16;;;29.52;34.09
81499;BME280;70904;52.360;5.198;2023-07-08T08:07:06;101787.47;;;29.22;35.03
81499;BME280;70904;52.360;5.198;2023-07-08T08:09:31;101776.63;;;29.68;33.73
81499;BME280;70904;52.360;5.198;2023-07-08T08:11:57;101778.94;;;29.66;35.53
81499;BME280;70904;52.360;5.198;2023-07-08T08:14:22;101768.78;;;30.32;33.02
81499;BME280;70904;52.360;5.198;2023-07-08T08:16:47;101775.75;;;30.42;32.50
81499;BME280;70904;52.360;5.198;2023-07-08T08:19:13;101780.31;;;30.73;32.89
81499;BME280;70904;52.360;5.198;2023-07-08T08:21:38;101774.56;;;30.85;33.19
81499;BME280;70904;52.360;5.198;2023-07-08T08:24:04;101767.72;;;30.83;31.86
81499;BME280;70904;52.360;5.198;2023-07-08T08:26:29;101768.63;;;31.13;32.93
81499;BME280;70904;52.360;5.198;2023-07-08T08:28:55;101771.81;;;31.38;30.94
81499;BME280;70904;52.360;5.198;2023-07-08T08:31:21;101777.78;;;31.10;31.21
81499;BME280;70904;52.360;5.198;2023-07-08T08:33:46;101769.28;;;30.57;32.45
81499;BME280;70904;52.360;5.198;2023-07-08T08:36:12;101771.63;;;30.78;32.10
81499;BME280;70904;52.360;5.198;2023-07-08T08:38:37;101772.41;;;30.98;31.50
81499;BME280;70904;52.360;5.198;2023-07-08T08:41:13;101777.78;;;30.87;33.14
81499;BME280;70904;52.360;5.198;2023-07-08T08:43:39;101781.84;;;31.66;31.71
81499;BME280;70904;52.360;5.198;2023-07-08T08:48:58;101795.06;;;32.67;28.63
81499;BME280;70904;52.360;5.198;2023-07-08T08:51:26;101793.88;;;32.31;29.26
81499;BME280;70904;52.360;5.198;2023-07-08T08:53:56;101788.06;;;32.13;30.08
81499;BME280;70904;52.360;5.198;2023-07-08T08:56:28;101792.78;;;32.42;29.91
81499;BME280;70904;52.360;5.198;2023-07-08T08:59:03;101791.34;;;32.18;31.15
81499;BME280;70904;52.360;5.198;2023-07-08T09:01:32;101804.72;;;33.10;30.46
81499;BME280;70904;52.360;5.198;2023-07-08T09:04:02;101795.50;;;33.10;27.66
81499;BME280;70904;52.360;5.198;2023-07-08T09:06:31;101800.25;;;33.61;27.51
81499;BME280;70904;52.360;5.198;2023-07-08T09:09:02;101793.97;;;33.86;27.20
81499;BME280;70904;52.360;5.198;2023-07-08T09:11:44;101805.09;;;33.64;28.54
81499;BME280;70904;52.360;5.198;2023-07-08T09:14:17;101803.06;;;33.58;28.41
81499;BME280;70904;52.360;5.198;2023-07-08T09:22:17;101800.59;;;33.52;27.38
81499;BME280;70904;52.360;5.198;2023-07-08T09:24:49;101794.41;;;33.91;28.67
81499;BME280;70904;52.360;5.198;2023-07-08T09:27:16;101789.09;;;33.72;28.20
81499;BME280;70904;52.360;5.198;2023-07-08T09:29:42;101793.63;;;33.98;27.78
81499;BME280;70904;52.360;5.198;2023-07-08T09:32:17;101788.91;;;34.20;28.01
81499;BME280;70904;52.360;5.198;2023-07-08T09:34:47;101792.25;;;34.76;26.54
81499;BME280;70904;52.360;5.198;2023-07-08T09:37:25;101796.69;;;34.66;26.70
81499;BME280;70904;52.360;5.198;2023-07-08T09:39:52;101787.47;;;34.80;26.69
81499;BME280;70904;52.360;5.198;2023-07-08T09:42:18;101781.41;;;34.71;26.76
81499;BME280;70904;52.360;5.198;2023-07-08T09:44:45;101778.97;;;35.45;26.49
81499;BME280;70904;52.360;5.198;2023-07-08T09:47:25;101785.81;;;35.51;24.50
81499;BME280;70904;52.360;5.198;2023-07-08T09:49:53;101796.94;;;35.90;25.92
81499;BME280;70904;52.360;5.198;2023-07-08T09:52:19;101800.69;;;35.33;24.10
81499;BME280;70904;52.360;5.198;2023-07-08T09:54:45;101798.72;;;35.23;26.50
81499;BME280;70904;52.360;5.198;2023-07-08T09:59:49;101791.03;;;34.98;25.19
81499;BME280;70904;52.360;5.198;2023-07-08T10:05:10;101789.69;;;35.93;24.35
81499;BME280;70904;52.360;5.198;2023-07-08T10:07:37;101794.88;;;36.05;25.41
81499;BME280;70904;52.360;5.198;2023-07-08T10:10:07;101789.09;;;36.93;23.76
81499;BME280;70904;52.360;5.198;2023-07-08T10:12:38;101778.03;;;37.13;24.08
81499;BME280;70904;52.360;5.198;2023-07-08T10:15:20;101795.78;;;37.89;21.47
81499;BME280;70904;52.360;5.198;2023-07-08T10:17:47;101779.84;;;37.72;21.77
81499;BME280;70904;52.360;5.198;2023-07-08T10:20:13;101795.91;;;38.13;20.94
81499;BME280;70904;52.360;5.198;2023-07-08T10:28:13;101794.38;;;36.28;23.72
81499;BME280;70904;52.360;5.198;2023-07-08T10:30:57;101793.97;;;37.72;24.11
81499;BME280;70904;52.360;5.198;2023-07-08T10:36:53;101786.34;;;37.31;24.43
81499;BME280;70904;52.360;5.198;2023-07-08T10:53:21;101774.97;;;37.38;22.71
81499;BME280;70904;52.360;5.198;2023-07-08T10:55:58;101779.81;;;37.76;23.16
81499;BME280;70904;52.360;5.198;2023-07-08T10:58:58;101780.25;;;38.05;22.30
81499;BME280;70904;52.360;5.198;2023-07-08T11:07:28;101774.75;;;38.52;20.80
81499;BME280;70904;52.360;5.198;2023-07-08T11:10:02;101772.25;;;38.00;21.10
81499;BME280;70904;52.360;5.198;2023-07-08T11:13:00;101773.53;;;38.22;22.60
81499;BME280;70904;52.360;5.198;2023-07-08T11:15:28;101772.50;;;38.67;19.75
81499;BME280;70904;52.360;5.198;2023-07-08T11:18:18;101752.56;;;37.92;22.10
81499;BME280;70904;52.360;5.198;2023-07-08T11:20:45;101762.28;;;39.20;21.71
81499;BME280;70904;52.360;5.198;2023-07-08T11:23:40;101757.59;;;39.73;20.44
81499;BME280;70904;52.360;5.198;2023-07-08T11:26:23;101753.16;;;39.32;19.31
81499;BME280;70904;52.360;5.198;2023-07-08T11:28:53;101754.72;;;38.12;20.03
81499;BME280;70904;52.360;5.198;2023-07-08T11:31:23;101755.47;;;37.85;22.37
81499;BME280;70904;52.360;5.198;2023-07-08T11:33:50;101742.72;;;36.94;20.57
81499;BME280;70904;52.360;5.198;2023-07-08T11:36:16;101745.09;;;36.51;21.98
81499;BME280;70904;52.360;5.198;2023-07-08T11:38:55;101752.06;;;37.33;22.61
81499;BME280;70904;52.360;5.198;2023-07-08T11:41:22;101746.25;;;37.05;21.89
81499;BME280;70904;52.360;5.198;2023-07-08T11:43:56;101747.94;;;38.60;22.70
81499;BME280;70904;52.360;5.198;2023-07-08T11:46:27;101742.16;;;38.44;20.32
81499;BME280;70904;52.360;5.198;2023-07-08T11:48:57;101745.69;;;38.75;21.44
81499;BME280;70904;52.360;5.198;2023-07-08T11:51:31;101750.06;;;39.03;20.23
81499;BME280;70904;52.360;5.198;2023-07-08T11:54:11;101744.41;;;39.03;21.35
81499;BME280;70904;52.360;5.198;2023-07-08T11:59:17;101729.13;;;39.80;20.49
81499;BME280;70904;52.360;5.198;2023-07-08T12:01:52;101736.34;;;40.01;19.16
81499;BME280;70904;52.360;5.198;2023-07-08T12:04:30;101731.75;;;39.71;20.83
81499;BME280;70904;52.360;5.198;2023-07-08T12:07:16;101734.78;;;40.00;21.20
81499;BME280;70904;52.360;5.198;2023-07-08T12:12:30;101730.66;;;39.65;18.72
81499;BME280;70904;52.360;5.198;2023-07-08T12:15:28;101728.34;;;39.60;20.72
81499;BME280;70904;52.360;5.198;2023-07-08T12:18:30;101732.09;;;39.93;20.14
81499;BME280;70904;52.360;5.198;2023-07-08T12:20:59;101728.28;;;40.53;19.86
81499;BME280;70904;52.360;5.198;2023-07-08T12:23:27;101727.91;;;40.67;19.69
81499;BME280;70904;52.360;5.198;2023-07-08T12:25:54;101728.03;;;40.47;20.88
81499;BME280;70904;52.360;5.198;2023-07-08T12:28:21;101720.56;;;39.64;21.17
81499;BME280;70904;52.360;5.198;2023-07-08T12:30:48;101713.66;;;39.65;19.99
81499;BME280;70904;52.360;5.198;2023-07-08T12:33:17;101716.00;;;39.50;21.43
81499;BME280;70904;52.360;5.198;2023-07-08T12:35:44;101721.47;;;39.97;21.03
81499;BME280;70904;52.360;5.198;2023-07-08T12:38:40;101722.13;;;38.58;19.38
81499;BME280;70904;52.360;5.198;2023-07-08T12:41:11;101708.03;;;38.78;21.44
81499;BME280;70904;52.360;5.198;2023-07-08T12:43:37;101708.91;;;37.66;20.81
81499;BME280;70904;52.360;5.198;2023-07-08T12:46:02;101710.28;;;37.85;20.00
81499;BME280;70904;52.360;5.198;2023-07-08T12:48:33;101698.75;;;38.27;21.83
81499;BME280;70904;52.360;5.198;2023-07-08T12:50:59;101703.69;;;38.97;21.35
81499;BME280;70904;52.360;5.198;2023-07-08T12:53:24;101709.53;;;38.36;19.12
81499;BME280;70904;52.360;5.198;2023-07-08T12:55:52;101696.75;;;38.27;20.56
81499;BME280;70904;52.360;5.198;2023-07-08T12:58:30;101709.50;;;38.39;21.26
81499;BME280;70904;52.360;5.198;2023-07-08T13:00:59;101702.34;;;38.82;21.45
81499;BME280;70904;52.360;5.198;2023-07-08T13:03:30;101697.22;;;37.95;21.65
81499;BME280;70904;52.360;5.198;2023-07-08T13:05:58;101700.34;;;38.79;22.72
81499;BME280;70904;52.360;5.198;2023-07-08T13:08:27;101700.75;;;39.44;20.93
81499;BME280;70904;52.360;5.198;2023-07-08T13:10:57;101703.97;;;39.03;22.05
81499;BME280;70904;52.360;5.198;2023-07-08T13:13:28;101702.13;;;38.69;21.05
81499;BME280;70904;52.360;5.198;2023-07-08T13:15:55;101699.78;;;37.17;20.56
81499;BME280;70904;52.360;5.198;2023-07-08T13:18:28;101707.06;;;37.49;19.58
81499;BME280;70904;52.360;5.198;2023-07-08T13:20:54;101694.81;;;37.93;19.15
81499;BME280;70904;52.360;5.198;2023-07-08T13:23:21;101691.19;;;37.93;21.08
81499;BME280;70904;52.360;5.198;2023-07-08T13:25:48;101693.28;;;37.58;21.71
81499;BME280;70904;52.360;5.198;2023-07-08T13:28:38;101698.75;;;37.38;19.94
81499;BME280;70904;52.360;5.198;2023-07-08T13:34:15;101695.38;;;37.81;21.33
81499;BME280;70904;52.360;5.198;2023-07-08T13:36:43;101696.91;;;37.59;21.57
81499;BME280;70904;52.360;5.198;2023-07-08T13:39:17;101693.41;;;37.44;22.12
81499;BME280;70904;52.360;5.198;2023-07-08T13:41:45;101688.78;;;36.88;19.48
81499;BME280;70904;52.360;5.198;2023-07-08T13:44:11;101690.50;;;36.79;21.72
81499;BME280;70904;52.360;5.198;2023-07-08T13:46:39;101687.22;;;36.80;21.74
81499;BME280;70904;52.360;5.198;2023-07-08T13:51:40;101685.91;;;36.47;20.18
81499;BME280;70904;52.360;5.198;2023-07-08T13:54:22;101686.84;;;36.30;21.42